Time;durP1;ratioP1;P1;durP2;ratioP2;P2;SDS_P1;SDS_P2;PMS_P1;PMS_P2;Temp;Humidity;BMP_temperature;BMP_pressure;BME280_temperature;BME280_humidity;BME280_pressure;Samples;Min_cycle;Max_cycle;Signal;HPM_P1;HPM_P2
2021/12/03 00:01:39;;;;;;;1.80;1.30;;;20.60;31.90;;;;;;6232873;28;20261;-57
2021/12/03 00:04:41;;;;;;;1.48;1.20;;;20.80;32.00;;;;;;6232547;28;20218;-57
2021/12/03 00:07:43;;;;;;;1.83;1.35;;;20.60;31.90;;;;;;6224251;28;20081;-56
2021/12/03 00:10:49;;;;;;;1.67;1.10;;;20.70;31.90;;;;;;6220759;28;20087;-57
2021/12/03 00:13:51;;;;;;;1.58;1.35;;;20.70;31.90;;;;;;6203910;28;20044;-57
2021/12/03 00:16:53;;;;;;;1.42;1.30;;;20.80;32.00;;;;;;6183803;28;20079;-57
2021/12/03 00:19:55;;;;;;;1.70;1.25;;;20.70;31.90;;;;;;6194234;28;20069;-57
2021/12/03 00:22:58;;;;;;;;;;;20.70;31.90;;;;;;6221550;28;20037;-57
2021/12/03 00:26:01;;;;;;;1.67;1.35;;;20.70;31.90;;;;;;6231884;28;20514;-57
2021/12/03 00:29:02;;;;;;;1.80;1.25;;;20.70;32.00;;;;;;6218155;28;20135;-57
2021/12/03 00:32:04;;;;;;;1.80;1.40;;;20.70;31.90;;;;;;6229671;28;20118;-56
2021/12/03 00:35:09;;;;;;;1.52;1.20;;;20.90;32.00;;;;;;6224381;28;20045;-57
2021/12/03 00:38:11;;;;;;;1.40;1.30;;;20.60;31.90;;;;;;6212469;28;20059;-54
2021/12/03 00:41:16;;;;;;;1.90;1.38;;;20.60;31.90;;;;;;6231525;28;20047;-56
2021/12/03 00:44:20;;;;;;;1.48;1.30;;;20.70;32.00;;;;;;6212144;28;20131;-55
2021/12/03 00:47:22;;;;;;;1.45;1.20;;;20.70;32.00;;;;;;6224019;28;20115;-57
2021/12/03 00:50:24;;;;;;;1.85;1.50;;;20.50;31.90;;;;;;6226444;28;20036;-55
2021/12/03 00:53:26;;;;;;;1.33;1.20;;;20.70;32.00;;;;;;6230890;28;20111;-52
2021/12/03 00:56:28;;;;;;;1.58;1.25;;;20.70;32.10;;;;;;6237058;28;20041;-54
2021/12/03 00:59:29;;;;;;;;;;;20.60;32.00;;;;;;6233269;28;20253;-52
2021/12/03 01:02:31;;;;;;;1.48;1.17;;;20.60;32.00;;;;;;6230968;28;20079;-55
2021/12/03 01:05:34;;;;;;;1.38;1.10;;;20.50;31.90;;;;;;6240093;28;20049;-54
2021/12/03 01:08:36;;;;;;;1.67;1.20;;;20.50;31.90;;;;;;6216659;28;20515;-55
2021/12/03 01:11:37;;;;;;;1.45;1.20;;;20.50;32.00;;;;;;6241741;28;20122;-55
2021/12/03 01:14:39;;;;;;;1.50;0.98;;;20.40;31.90;;;;;;6241995;28;20033;-53
2021/12/03 01:17:41;;;;;;;1.60;1.20;;;20.40;31.90;;;;;;6249952;28;20135;-52
2021/12/03 01:20:43;;;;;;;1.10;0.82;;;20.50;32.00;;;;;;6222698;28;20897;-55
2021/12/03 01:23:46;;;;;;;1.35;1.10;;;20.70;32.10;;;;;;6235747;28;20041;-55
2021/12/03 01:26:51;;;;;;;1.00;0.90;;;20.60;32.10;;;;;;6207361;28;20080;-55
2021/12/03 01:29:55;;;;;;;1.20;1.00;;;20.40;32.00;;;;;;6240138;28;20041;-54
2021/12/03 01:32:58;;;;;;;1.20;1.00;;;20.40;32.00;;;;;;6241078;28;20143;-53
2021/12/03 01:36:00;;;;;;;1.38;1.00;;;20.50;32.10;;;;;;6219735;28;20160;-54
2021/12/03 01:39:03;;;;;;;1.50;1.15;;;20.40;32.10;;;;;;6237411;28;20091;-53
2021/12/03 01:42:05;;;;;;;1.30;1.05;;;20.60;32.20;;;;;;6237744;28;20171;-55
2021/12/03 01:45:07;;;;;;;;;;;20.60;32.20;;;;;;6239748;28;20146;-54
2021/12/03 01:48:09;;;;;;;1.38;0.93;;;20.60;32.30;;;;;;6250086;28;19936;-54
2021/12/03 01:51:10;;;;;;;;;;;20.40;32.20;;;;;;6237853;28;20106;-55
2021/12/03 01:54:12;;;;;;;1.42;0.90;;;20.60;32.40;;;;;;6241485;28;19935;-52
2021/12/03 01:57:14;;;;;;;1.50;1.00;;;20.50;32.30;;;;;;6241103;28;20041;-54
2021/12/03 02:00:19;;;;;;;;;;;20.40;32.20;;;;;;6238370;28;20118;-54
2021/12/03 02:03:23;;;;;;;1.00;0.90;;;20.40;32.30;;;;;;6231325;28;19943;-54
2021/12/03 02:06:27;;;;;;;1.23;0.88;;;20.40;32.30;;;;;;6235411;28;20975;-54
2021/12/03 02:09:29;;;;;;;1.00;0.82;;;20.30;32.40;;;;;;6234068;28;20849;-52
2021/12/03 02:12:30;;;;;;;1.38;0.82;;;20.30;32.30;;;;;;6242268;28;20042;-53
2021/12/03 02:15:32;;;;;;;1.88;1.00;;;20.30;32.40;;;;;;6240962;28;20077;-53
2021/12/03 02:18:34;;;;;;;0.90;0.80;;;20.50;32.60;;;;;;6191582;28;20044;-52
2021/12/03 02:21:36;;;;;;;1.02;0.85;;;20.30;32.50;;;;;;6232853;28;20040;-52
2021/12/03 02:24:37;;;;;;;1.33;0.93;;;20.20;32.40;;;;;;6231454;28;20064;-51
2021/12/03 02:27:40;;;;;;;1.33;0.93;;;20.70;32.70;;;;;;6237407;28;20664;-52
2021/12/03 02:30:43;;;;;;;1.20;0.88;;;20.50;32.70;;;;;;6198471;28;20029;-50
2021/12/03 02:33:45;;;;;;;1.40;1.00;;;20.30;32.60;;;;;;6209021;28;20121;-49
2021/12/03 02:36:47;;;;;;;0.93;0.82;;;20.60;32.80;;;;;;6220213;28;20151;-51
2021/12/03 02:39:49;;;;;;;1.90;1.00;;;20.40;32.70;;;;;;6222068;28;20257;-48
2021/12/03 02:42:51;;;;;;;;;;;20.50;32.80;;;;;;6224516;28;20045;-49
2021/12/03 02:45:52;;;;;;;;;;;20.30;32.80;;;;;;6230233;28;20395;-50
2021/12/03 02:48:54;;;;;;;1.08;0.77;;;20.40;32.80;;;;;;6226193;28;20189;-49
2021/12/03 02:51:56;;;;;;;;;;;20.40;32.80;;;;;;6233900;28;20045;-51
2021/12/03 02:54:57;;;;;;;;;;;20.30;32.80;;;;;;6232904;28;20050;-48
2021/12/03 02:57:59;;;;;;;1.13;0.77;;;20.40;32.80;;;;;;6223493;28;19994;-53
2021/12/03 03:01:02;;;;;;;0.95;0.70;;;20.50;32.90;;;;;;6219189;28;20102;-51
2021/12/03 03:04:04;;;;;;;0.90;0.77;;;20.50;33.00;;;;;;6222116;28;20343;-49
2021/12/03 03:07:06;;;;;;;0.90;0.65;;;20.40;33.00;;;;;;6203325;28;20776;-49
2021/12/03 03:10:14;;;;;;;1.05;0.70;;;20.60;33.20;;;;;;6201565;28;20737;-50
2021/12/03 03:13:15;;;;;;;1.00;0.75;;;20.50;33.20;;;;;;6221291;28;20168;-50
2021/12/03 03:16:17;;;;;;;;;;;20.40;33.20;;;;;;6188286;28;21011;-48
2021/12/03 03:19:20;;;;;;;0.75;0.57;;;20.20;33.10;;;;;;6207269;28;19928;-51
2021/12/03 03:22:23;;;;;;;1.08;0.90;;;20.40;33.20;;;;;;6224086;28;20378;-48
2021/12/03 03:25:25;;;;;;;1.05;0.68;;;20.50;33.40;;;;;;6205432;28;20709;-52
2021/12/03 03:28:27;;;;;;;1.02;0.80;;;20.00;33.10;;;;;;6210577;28;20044;-52
2021/12/03 03:31:28;;;;;;;0.98;0.70;;;20.50;33.50;;;;;;6223208;28;20053;-47
2021/12/03 03:34:30;;;;;;;0.70;0.52;;;20.40;33.40;;;;;;6227009;28;20048;-50
2021/12/03 03:37:33;;;;;;;0.52;0.50;;;20.40;33.50;;;;;;6224168;28;20147;-50
2021/12/03 03:40:35;;;;;;;0.68;0.63;;;20.20;33.40;;;;;;6223096;28;20048;-51
2021/12/03 03:43:37;;;;;;;0.50;0.50;;;20.20;33.40;;;;;;6189675;28;20171;-47
2021/12/03 03:46:38;;;;;;;;;;;20.20;33.50;;;;;;6223655;28;20269;-50
2021/12/03 03:49:40;;;;;;;0.73;0.50;;;20.10;33.50;;;;;;6221335;28;20366;-51
2021/12/03 03:52:44;;;;;;;1.08;0.60;;;20.40;33.60;;;;;;6211004;28;20194;-52
2021/12/03 03:55:45;;;;;;;0.57;0.43;;;20.50;33.80;;;;;;6207287;28;20397;-50
2021/12/03 03:58:47;;;;;;;0.50;0.50;;;20.40;33.90;;;;;;6220544;28;20079;-51
2021/12/03 04:01:50;;;;;;;0.90;0.70;;;20.30;33.90;;;;;;6222197;28;20503;-48
2021/12/03 04:04:52;;;;;;;0.80;0.70;;;20.40;34.00;;;;;;6226649;28;20315;-50
2021/12/03 04:07:54;;;;;;;0.40;0.30;;;20.20;34.00;;;;;;6232107;28;20055;-53
2021/12/03 04:10:57;;;;;;;0.50;0.50;;;20.40;34.10;;;;;;6227044;28;20882;-47
2021/12/03 04:13:58;;;;;;;0.60;0.55;;;20.60;34.30;;;;;;6223272;28;20048;-48
2021/12/03 04:17:00;;;;;;;1.55;0.40;;;20.00;34.00;;;;;;6226335;28;20037;-56
2021/12/03 04:20:01;;;;;;;;;;;20.10;34.20;;;;;;6235425;28;20932;-52
2021/12/03 04:23:03;;;;;;;1.00;0.63;;;20.20;34.40;;;;;;6206235;28;20024;-49
2021/12/03 04:26:05;;;;;;;0.88;0.60;;;20.50;34.60;;;;;;6224046;28;21194;-48
2021/12/03 04:29:07;;;;;;;0.70;0.40;;;19.90;34.50;;;;;;6221783;28;20147;-48
2021/12/03 04:32:08;;;;;;;;;;;20.10;34.80;;;;;;6230493;28;20806;-50
2021/12/03 04:35:10;;;;;;;1.08;0.50;;;20.10;35.10;;;;;;6233397;28;20421;-50
2021/12/03 04:38:13;;;;;;;0.65;0.55;;;20.30;35.00;;;;;;6225319;28;20122;-53
2021/12/03 04:41:14;;;;;;;1.02;0.50;;;20.20;35.20;;;;;;6208612;28;20051;-51
2021/12/03 04:44:15;;;;;;;;;;;20.10;35.20;;;;;;6226925;28;20135;-49
2021/12/03 04:47:17;;;;;;;0.82;0.50;;;20.00;35.30;;;;;;6223982;28;20796;-51
2021/12/03 04:50:20;;;;;;;1.73;0.63;;;20.10;35.20;;;;;;6227269;28;20072;-51
2021/12/03 04:53:22;;;;;;;0.82;0.50;;;20.30;35.40;;;;;;6228471;28;20155;-51
2021/12/03 04:56:24;;;;;;;0.70;0.50;;;20.00;35.40;;;;;;6232182;28;20072;-51
2021/12/03 04:59:25;;;;;;;1.10;0.68;;;20.00;35.50;;;;;;6231134;28;20041;-49
2021/12/03 05:02:27;;;;;;;;;;;20.10;35.60;;;;;;6216898;28;20155;-49
2021/12/03 05:05:32;;;;;;;0.82;0.60;;;20.10;35.70;;;;;;6206359;28;20852;-54
2021/12/03 05:08:35;;;;;;;1.20;0.50;;;20.30;35.70;;;;;;6202211;28;20629;-53
2021/12/03 05:11:36;;;;;;;0.40;0.40;;;20.00;35.60;;;;;;6203652;28;20134;-51
2021/12/03 05:14:38;;;;;;;0.55;0.50;;;20.30;35.90;;;;;;6227547;28;20234;-50
2021/12/03 05:17:39;;;;;;;0.60;0.30;;;20.40;36.00;;;;;;6220649;28;20066;-50
2021/12/03 05:20:41;;;;;;;;;;;20.20;36.00;;;;;;6189798;28;21861;-48
2021/12/03 05:23:43;;;;;;;0.65;0.30;;;20.50;36.20;;;;;;6205546;28;20026;-49
2021/12/03 05:26:45;;;;;;;1.02;0.45;;;20.20;36.00;;;;;;6218600;28;20067;-48
2021/12/03 05:29:49;;;;;;;0.60;0.32;;;20.20;36.10;;;;;;6227162;28;20040;-51
2021/12/03 05:32:50;;;;;;;0.60;0.40;;;20.10;36.20;;;;;;6216987;28;20492;-52
2021/12/03 05:35:52;;;;;;;0.40;0.30;;;20.20;36.40;;;;;;6222870;28;20646;-51
2021/12/03 05:38:55;;;;;;;0.75;0.30;;;19.90;36.30;;;;;;6220606;28;20449;-51
2021/12/03 05:42:07;;;;;;;0.95;0.40;;;20.10;36.50;;;;;;6224311;28;20379;-53
2021/12/03 05:45:11;;;;;;;0.68;0.30;;;20.10;36.50;;;;;;6204112;28;20370;-53
2021/12/03 05:48:13;;;;;;;0.30;0.30;;;20.40;36.80;;;;;;6228896;28;20821;-51
2021/12/03 05:51:15;;;;;;;0.40;0.40;;;20.30;36.80;;;;;;6209558;28;20076;-51
2021/12/03 05:54:18;;;;;;;0.40;0.40;;;20.30;37.20;;;;;;6224735;28;20143;-52
2021/12/03 05:57:19;;;;;;;0.32;0.20;;;20.40;37.00;;;;;;6226899;28;20047;-51
2021/12/03 06:00:24;;;;;;;;;;;20.20;36.90;;;;;;6228661;28;20090;-50
2021/12/03 06:03:25;;;;;;;0.32;0.30;;;20.10;37.00;;;;;;6227103;28;20043;-50
2021/12/03 06:06:27;;;;;;;;;;;20.10;37.00;;;;;;6226767;28;20048;-53
2021/12/03 06:09:29;;;;;;;0.68;0.30;;;20.10;37.10;;;;;;6222246;28;19928;-50
2021/12/03 06:12:30;;;;;;;0.50;0.30;;;20.20;37.00;;;;;;6228296;28;20052;-54
2021/12/03 06:15:32;;;;;;;0.55;0.40;;;20.10;37.00;;;;;;6231303;28;20119;-51
2021/12/03 06:18:33;;;;;;;;;;;20.20;37.20;;;;;;6229431;28;21183;-52
2021/12/03 06:21:35;;;;;;;0.40;0.20;;;20.30;37.40;;;;;;6200823;28;20042;-51
2021/12/03 06:24:39;;;;;;;0.93;0.40;;;20.00;37.10;;;;;;6221446;28;20143;-52
2021/12/03 06:27:41;;;;;;;0.47;0.40;;;20.00;37.20;;;;;;6228952;28;20903;-52
2021/12/03 06:30:43;;;;;;;0.70;0.35;;;19.90;37.20;;;;;;6206982;28;20033;-51
2021/12/03 06:33:45;;;;;;;0.40;0.40;;;20.20;37.50;;;;;;6222421;28;20049;-51
2021/12/03 06:36:46;;;;;;;;;;;20.10;37.50;;;;;;6232169;28;20949;-51
2021/12/03 06:39:48;;;;;;;0.68;0.47;;;20.20;37.60;;;;;;6226268;28;20009;-52
2021/12/03 06:42:50;;;;;;;0.90;0.50;;;20.40;37.60;;;;;;6228251;28;20136;-54
2021/12/03 06:45:52;;;;;;;0.50;0.30;;;20.30;37.60;;;;;;6227545;28;20151;-52
2021/12/03 06:48:53;;;;;;;0.70;0.40;;;20.40;38.10;;;;;;6222533;28;20047;-54
2021/12/03 06:52:00;;;;;;;;;;;20.10;37.60;;;;;;6227330;28;20041;-52
2021/12/03 06:55:04;;;;;;;0.90;0.50;;;20.20;38.40;;;;;;6223149;28;20025;-54
2021/12/03 06:58:05;;;;;;;0.70;0.30;;;20.10;37.60;;;;;;6220137;28;20907;-51
2021/12/03 07:01:07;;;;;;;;;;;20.40;37.90;;;;;;6221109;28;20893;-50
2021/12/03 07:04:13;;;;;;;0.70;0.40;;;20.20;37.80;;;;;;6223685;28;20771;-53
2021/12/03 07:07:15;;;;;;;0.60;0.40;;;20.50;37.90;;;;;;6206703;28;20048;-54
2021/12/03 07:10:17;;;;;;;0.40;0.40;;;20.50;38.00;;;;;;6224281;28;20122;-50
2021/12/03 07:13:19;;;;;;;0.82;0.40;;;20.30;38.10;;;;;;6215772;28;20049;-54
2021/12/03 07:16:21;;;;;;;0.70;0.40;;;20.20;38.10;;;;;;6215891;28;20044;-54
2021/12/03 07:19:22;;;;;;;;;;;20.60;38.40;;;;;;6154134;28;20055;-49
2021/12/03 07:22:24;;;;;;;0.95;0.50;;;20.40;38.30;;;;;;6201960;28;19936;-55
2021/12/03 07:25:26;;;;;;;1.20;0.50;;;20.40;38.30;;;;;;6203026;28;20167;-60
2021/12/03 07:28:28;;;;;;;0.80;0.40;;;20.40;38.90;;;;;;6202685;28;20260;-59
2021/12/03 07:31:30;;;;;;;1.05;0.50;;;20.40;39.30;;;;;;6195568;28;20044;-56
2021/12/03 07:34:32;;;;;;;0.45;0.30;;;20.60;39.70;;;;;;6199841;28;20040;-58
2021/12/03 07:37:34;;;;;;;;;;;20.50;39.90;;;;;;6200272;28;20041;-60
2021/12/03 07:40:36;;;;;;;0.75;0.35;;;20.40;39.90;;;;;;6175549;28;19928;-58
2021/12/03 07:43:38;;;;;;;0.68;0.30;;;20.40;39.80;;;;;;6140951;28;20091;-57
2021/12/03 07:46:40;;;;;;;0.57;0.30;;;20.60;40.10;;;;;;6173044;28;20159;-57
2021/12/03 07:49:41;;;;;;;;;;;20.70;40.50;;;;;;6162401;28;23236;-56
2021/12/03 07:52:43;;;;;;;;;;;20.70;40.50;;;;;;6154913;28;39096;-56
2021/12/03 07:55:46;;;;;;;1.58;0.55;;;20.70;40.30;;;;;;6160272;28;34362;-58
2021/12/03 07:58:48;;;;;;;1.67;0.40;;;20.70;40.30;;;;;;6137612;28;51999;-59
2021/12/03 08:01:50;;;;;;;1.52;0.30;;;20.70;40.20;;;;;;6132012;28;21467;-54
2021/12/03 08:04:52;;;;;;;1.13;0.50;;;20.60;40.60;;;;;;6140202;28;20067;-52
2021/12/03 08:07:53;;;;;;;;;;;20.90;40.70;;;;;;6117545;28;38639;-58
2021/12/03 08:10:55;;;;;;;0.32;0.30;;;20.80;40.80;;;;;;6131500;28;20040;-55
2021/12/03 08:13:57;;;;;;;0.17;0.17;;;20.90;40.70;;;;;;6103948;28;20110;-48
2021/12/03 08:16:58;;;;;;;;;;;20.90;40.90;;;;;;6120871;28;20044;-59
2021/12/03 08:20:00;;;;;;;2.22;0.50;;;20.90;40.80;;;;;;6128980;28;19994;-57
2021/12/03 08:23:02;;;;;;;1.38;0.38;;;20.80;40.60;;;;;;6077091;28;20075;-58
2021/12/03 08:26:05;;;;;;;0.43;0.30;;;21.00;41.10;;;;;;6107821;28;43207;-58
2021/12/03 08:29:06;;;;;;;3.33;0.22;;;20.90;41.00;;;;;;6119704;28;22172;-58
2021/12/03 08:32:10;;;;;;;0.30;0.30;;;20.90;41.20;;;;;;6102369;28;20946;-58
2021/12/03 08:35:11;;;;;;;0.73;0.40;;;21.00;41.20;;;;;;6077569;28;20048;-58
2021/12/03 08:38:13;;;;;;;1.38;0.32;;;21.10;41.30;;;;;;6100720;28;21974;-57
2021/12/03 08:41:36;;;;;;;0.63;0.20;;;21.10;41.30;;;;;;6091129;28;20037;-59
2021/12/03 08:44:37;;;;;;;0.10;0.10;;;21.00;41.30;;;;;;6115693;28;20041;-56
2021/12/03 08:47:40;;;;;;;1.65;0.45;;;21.10;41.50;;;;;;6104479;28;20044;-58
2021/12/03 08:50:49;;;;;;;0.57;0.20;;;21.20;41.60;;;;;;6130208;28;20051;-63
2021/12/03 08:57:08;;;;;;;1.52;0.30;;;21.30;41.80;;;;;;6095106;28;22946;-60
2021/12/03 09:00:12;;;;;;;0.10;0.10;;;21.40;41.90;;;;;;6107793;28;50717;-59
2021/12/03 09:03:14;;;;;;;0.57;0.30;;;21.70;42.10;;;;;;6082510;28;20079;-59
2021/12/03 09:06:15;;;;;;;0.65;0.38;;;21.40;41.80;;;;;;6105961;28;20045;-56
2021/12/03 09:09:17;;;;;;;1.02;0.20;;;21.50;41.90;;;;;;6090884;28;20767;-59
2021/12/03 09:12:19;;;;;;;0.45;0.30;;;21.50;41.90;;;;;;6110825;28;20900;-59
2021/12/03 09:15:26;;;;;;;0.40;0.20;;;21.50;41.90;;;;;;6108290;28;20053;-57
2021/12/03 09:18:31;;;;;;;0.25;0.15;;;21.40;41.80;;;;;;6075009;28;20074;-59
2021/12/03 09:21:52;;;;;;;0.88;0.20;;;21.30;41.80;;;;;;6104738;28;20037;-59
2021/12/03 09:24:54;;;;;;;0.10;0.10;;;21.50;41.90;;;;;;6112959;28;20041;-59
2021/12/03 09:27:59;;;;;;;0.50;0.22;;;21.60;42.00;;;;;;6121108;28;20055;-60
2021/12/03 09:31:01;;;;;;;0.75;0.20;;;21.60;42.00;;;;;;6116145;28;20037;-60
2021/12/03 09:34:05;;;;;;;0.68;0.20;;;21.60;42.00;;;;;;6119568;28;20627;-58
2021/12/03 09:37:06;;;;;;;0.63;0.22;;;21.60;42.00;;;;;;6108783;28;20052;-57
2021/12/03 09:40:09;;;;;;;;;;;21.50;42.20;;;;;;6119943;28;20209;-58
2021/12/03 09:43:11;;;;;;;0.70;0.20;;;21.70;42.90;;;;;;6122803;28;19928;-57
2021/12/03 09:46:17;;;;;;;1.27;0.20;;;21.70;42.20;;;;;;6089219;28;20190;-59
2021/12/03 09:49:26;;;;;;;0.20;0.20;;;21.70;42.20;;;;;;6095655;28;21056;-60
2021/12/03 09:52:31;;;;;;;0.20;0.20;;;21.80;42.40;;;;;;6127129;28;20049;-58
2021/12/03 09:55:33;;;;;;;0.95;0.20;;;21.80;42.50;;;;;;6122426;28;20097;-58
2021/12/03 09:59:07;;;;;;;0.55;0.15;;;21.80;42.50;;;;;;6110513;28;20107;-61
2021/12/03 10:02:16;;;;;;;0.50;0.30;;;21.90;42.70;;;;;;6096124;28;20134;-60
2021/12/03 10:15:16;;;;;;;0.63;0.17;;;21.90;42.90;;;;;;6073658;28;20058;-60
2021/12/03 10:18:32;;;;;;;1.20;0.28;;;22.00;43.10;;;;;;6099156;28;21048;-56
2021/12/03 10:21:51;;;;;;;0.20;0.20;;;22.00;43.10;;;;;;6095837;28;25858;-60
2021/12/03 10:25:11;;;;;;;0.70;0.10;;;22.00;43.20;;;;;;6090647;28;20126;-62
2021/12/03 10:28:31;;;;;;;0.10;0.10;;;22.10;43.40;;;;;;6098922;28;20041;-59
2021/12/03 10:38:29;;;;;;;0.20;0.10;;;22.20;43.30;;;;;;6096683;28;20322;-59
2021/12/03 10:41:38;;;;;;;0.55;0.20;;;22.30;43.40;;;;;;6086111;28;20960;-60
2021/12/03 10:44:59;;;;;;;1.23;0.20;;;22.30;43.50;;;;;;6083011;28;20168;-57
2021/12/03 10:48:17;;;;;;;;;;;22.20;43.40;;;;;;6067769;28;20049;-60
2021/12/03 10:51:41;;;;;;;0.17;0.17;;;22.40;43.50;;;;;;6079657;28;19970;-57
2021/12/03 10:55:10;;;;;;;0.30;0.10;;;22.30;43.20;;;;;;6096737;28;20033;-59
2021/12/03 11:08:29;;;;;;;1.05;0.10;;;22.60;43.30;;;;;;6101126;28;20118;-50
2021/12/03 11:37:58;;;;;;;0.10;0.10;;;22.70;43.80;;;;;;6135229;28;20139;-52
2021/12/03 13:20:44;;;;;;;0.40;0.32;;;22.80;47.50;;;;;;6112409;28;20083;-59
2021/12/03 14:42:56;;;;;;;0.20;0.20;;;23.10;50.00;;;;;;6108279;28;20147;-58
2021/12/03 14:46:15;;;;;;;0.10;0.10;;;23.10;50.10;;;;;;6080480;28;20167;-59
2021/12/03 14:49:41;;;;;;;0.10;0.10;;;23.00;50.00;;;;;;6078909;28;20178;-53
2021/12/03 14:53:09;;;;;;;0.15;0.10;;;22.90;50.00;;;;;;6114478;28;20041;-56
2021/12/03 14:56:15;;;;;;;0.88;0.20;;;23.10;50.30;;;;;;6081560;28;21115;-58
2021/12/03 14:59:18;;;;;;;0.77;0.20;;;23.10;50.30;;;;;;6092733;28;27601;-57
2021/12/03 15:02:31;;;;;;;0.20;0.20;;;23.00;50.30;;;;;;6081560;28;23698;-58
2021/12/03 15:08:53;;;;;;;0.13;0.10;;;22.90;50.40;;;;;;6104839;28;20093;-59
2021/12/03 15:12:17;;;;;;;0.10;0.10;;;23.10;50.50;;;;;;6107808;28;20044;-60
2021/12/03 15:22:07;;;;;;;0.30;0.20;;;23.00;50.70;;;;;;6110773;28;20037;-59
2021/12/03 15:25:14;;;;;;;0.47;0.20;;;23.10;50.90;;;;;;6126442;28;21097;-57
2021/12/03 15:28:41;;;;;;;0.10;0.10;;;23.20;50.90;;;;;;6132194;28;20041;-58
2021/12/03 15:32:06;;;;;;;0.08;0.03;;;23.10;50.90;;;;;;6124435;28;20059;-54
2021/12/03 15:35:13;;;;;;;0.20;0.20;;;23.10;50.90;;;;;;6137942;28;20114;-55
2021/12/03 15:38:25;;;;;;;0.30;0.10;;;22.90;50.90;;;;;;6110995;28;20047;-59
2021/12/03 15:51:45;;;;;;;0.20;0.20;;;23.10;51.10;;;;;;6138161;28;22632;-55
2021/12/03 15:58:19;;;;;;;0.40;0.20;;;23.10;51.40;;;;;;6134754;28;41293;-57
2021/12/03 16:04:41;;;;;;;0.10;0.10;;;23.10;51.40;;;;;;6132737;28;19936;-58
2021/12/03 16:07:59;;;;;;;0.30;0.30;;;22.90;51.20;;;;;;6127291;28;20040;-59
2021/12/03 16:11:10;;;;;;;0.40;0.10;;;23.00;51.30;;;;;;6137227;28;21944;-59
2021/12/03 16:14:38;;;;;;;0.17;0.00;;;22.90;51.30;;;;;;6145238;28;20055;-57
2021/12/03 16:43:55;;;;;;;0.15;0.15;;;23.10;51.80;;;;;;6179016;28;21665;-53
2021/12/03 16:47:00;;;;;;;0.20;0.10;;;22.90;51.70;;;;;;6169003;28;21216;-48
2021/12/03 16:53:22;;;;;;;0.20;0.20;;;23.00;51.80;;;;;;6137268;28;20043;-55
2021/12/03 16:56:44;;;;;;;0.15;0.15;;;23.10;51.80;;;;;;6164847;28;20087;-51
2021/12/03 16:59:47;;;;;;;0.17;0.10;;;23.10;51.80;;;;;;6158993;28;21046;-50
2021/12/03 17:02:54;;;;;;;0.40;0.20;;;23.10;51.80;;;;;;6167500;28;20859;-54
2021/12/03 17:09:20;;;;;;;0.10;0.10;;;23.00;51.70;;;;;;6163171;28;20045;-54
2021/12/03 17:12:36;;;;;;;0.17;0.10;;;23.10;51.70;;;;;;6190028;28;20045;-52
2021/12/03 17:54:55;;;;;;;0.85;0.30;;;22.80;51.30;;;;;;6204014;28;20608;-49
2021/12/03 17:58:00;;;;;;;0.88;0.38;;;22.80;51.30;;;;;;6192041;28;20248;-48
2021/12/03 18:01:06;;;;;;;0.20;0.10;;;23.00;51.50;;;;;;6200929;28;20675;-49
2021/12/03 18:04:09;;;;;;;1.15;0.20;;;22.90;52.10;;;;;;6171821;28;20048;-52
2021/12/03 18:07:19;;;;;;;0.38;0.20;;;22.70;51.40;;;;;;6194372;28;20289;-50
2021/12/03 18:10:33;;;;;;;0.75;0.20;;;22.90;51.40;;;;;;6197624;28;20079;-52
2021/12/03 18:17:11;;;;;;;0.73;0.30;;;22.90;51.50;;;;;;6204558;28;20049;-51
2021/12/03 18:53:01;;;;;;;0.50;0.30;;;22.60;52.30;;;;;;6183889;28;20339;-48
2021/12/03 18:56:06;;;;;;;0.20;0.10;;;22.50;52.40;;;;;;6186188;28;20304;-49
2021/12/03 18:59:09;;;;;;;0.35;0.22;;;22.50;52.40;;;;;;6208013;28;20992;-50
2021/12/03 19:02:10;;;;;;;0.25;0.10;;;22.50;52.50;;;;;;6206661;28;20747;-49
2021/12/03 19:05:17;;;;;;;0.35;0.30;;;22.50;52.50;;;;;;6194799;28;20083;-48
2021/12/03 19:08:29;;;;;;;0.43;0.28;;;22.40;52.60;;;;;;6208110;28;20480;-54
2021/12/03 19:11:34;;;;;;;0.50;0.20;;;22.60;52.70;;;;;;6212061;28;20044;-49
2021/12/03 19:14:39;;;;;;;0.10;0.10;;;22.30;52.60;;;;;;6212594;28;20075;-48
2021/12/03 19:17:42;;;;;;;0.30;0.20;;;22.50;52.80;;;;;;6214218;28;20587;-49
2021/12/03 19:20:44;;;;;;;0.38;0.20;;;22.50;52.80;;;;;;6205938;28;20342;-50
2021/12/03 19:23:45;;;;;;;;;;;22.60;52.90;;;;;;6210211;28;20326;-50
2021/12/03 19:26:47;;;;;;;0.60;0.20;;;22.50;52.80;;;;;;6210524;28;19949;-48
2021/12/03 19:29:50;;;;;;;;;;;22.50;52.70;;;;;;6222018;28;20072;-53
2021/12/03 19:32:51;;;;;;;0.30;0.20;;;22.50;52.80;;;;;;6209103;28;21022;-55
2021/12/03 19:35:53;;;;;;;;;;;22.40;52.70;;;;;;6231298;28;20143;-54
2021/12/03 19:38:56;;;;;;;0.43;0.20;;;22.30;52.70;;;;;;6220107;28;21355;-53
2021/12/03 19:42:03;;;;;;;0.22;0.22;;;22.30;52.70;;;;;;6188411;28;21513;-55
2021/12/03 19:45:07;;;;;;;0.30;0.28;;;22.20;52.70;;;;;;6220465;28;20048;-53
2021/12/03 19:48:10;;;;;;;0.40;0.25;;;22.40;52.90;;;;;;6222990;28;20167;-51
2021/12/03 19:51:14;;;;;;;0.22;0.22;;;22.30;52.90;;;;;;6229892;28;20075;-51
2021/12/03 19:54:17;;;;;;;0.57;0.30;;;22.30;53.00;;;;;;6228266;28;20533;-54
2021/12/03 19:57:19;;;;;;;0.40;0.28;;;22.30;53.10;;;;;;6242055;28;20985;-54
2021/12/03 20:00:22;;;;;;;0.45;0.20;;;22.10;53.00;;;;;;6230330;28;20044;-53
2021/12/03 20:03:24;;;;;;;0.50;0.20;;;22.20;53.10;;;;;;6225315;28;20044;-54
2021/12/03 20:06:27;;;;;;;0.77;0.30;;;22.30;53.20;;;;;;6228086;28;20036;-53
2021/12/03 20:09:38;;;;;;;0.60;0.30;;;22.30;53.40;;;;;;6212155;28;20162;-54
2021/12/03 20:12:40;;;;;;;0.63;0.22;;;22.10;53.30;;;;;;6212660;28;20131;-54
2021/12/03 20:15:50;;;;;;;0.20;0.13;;;22.20;53.30;;;;;;6224277;28;20048;-53
2021/12/03 20:18:54;;;;;;;0.57;0.20;;;22.20;53.40;;;;;;6229335;28;20049;-53
2021/12/03 20:22:00;;;;;;;0.20;0.20;;;22.10;53.30;;;;;;6232293;28;20091;-54
2021/12/03 20:28:24;;;;;;;0.63;0.40;;;22.20;53.40;;;;;;6215044;28;20045;-55
2021/12/03 20:31:32;;;;;;;0.25;0.20;;;22.10;53.40;;;;;;6242630;28;20132;-54
2021/12/03 20:34:47;;;;;;;0.30;0.10;;;22.20;53.50;;;;;;6234885;28;20167;-55
2021/12/03 20:37:49;;;;;;;0.50;0.28;;;22.20;53.50;;;;;;6251035;28;20147;-51
2021/12/03 20:40:53;;;;;;;0.25;0.20;;;22.10;53.60;;;;;;6236428;28;20041;-52
2021/12/03 20:44:04;;;;;;;0.47;0.22;;;22.00;53.50;;;;;;6221546;28;20152;-53
2021/12/03 20:47:24;;;;;;;0.38;0.20;;;22.00;53.60;;;;;;6235752;28;20041;-55
2021/12/03 20:53:42;;;;;;;0.40;0.28;;;22.00;53.60;;;;;;6233675;28;20163;-55
2021/12/03 21:09:50;;;;;;;0.73;0.28;;;22.10;53.90;;;;;;6236512;28;20040;-55
2021/12/03 21:12:54;;;;;;;0.55;0.40;;;22.10;53.90;;;;;;6238638;28;20060;-54
2021/12/03 21:16:11;;;;;;;1.30;0.30;;;22.10;54.00;;;;;;6218881;28;20965;-52
2021/12/03 21:19:32;;;;;;;0.35;0.20;;;22.10;54.00;;;;;;6230287;28;20040;-54
2021/12/03 21:22:36;;;;;;;1.02;0.22;;;22.00;54.00;;;;;;6214121;28;20131;-52
2021/12/03 21:25:38;;;;;;;0.30;0.10;;;21.80;53.90;;;;;;6234680;28;20047;-55
2021/12/03 21:28:48;;;;;;;0.40;0.20;;;22.20;54.20;;;;;;6235275;28;20109;-54
2021/12/03 21:31:55;;;;;;;0.30;0.10;;;22.10;54.20;;;;;;6235344;28;20148;-53
2021/12/03 21:38:42;;;;;;;1.58;0.40;;;21.90;54.20;;;;;;6237591;28;20040;-55
2021/12/03 21:41:44;;;;;;;0.30;0.20;;;22.00;54.30;;;;;;6237907;28;20110;-55
2021/12/03 21:44:46;;;;;;;0.40;0.25;;;22.00;54.30;;;;;;6238722;28;20080;-53
2021/12/03 21:47:47;;;;;;;0.30;0.20;;;21.90;54.20;;;;;;6235995;28;20115;-55
2021/12/03 21:50:49;;;;;;;0.63;0.20;;;22.10;54.40;;;;;;6234495;28;20060;-55
2021/12/03 21:53:51;;;;;;;0.70;0.22;;;21.90;54.40;;;;;;6238261;28;21096;-55
2021/12/03 21:56:59;;;;;;;1.08;0.40;;;21.80;54.40;;;;;;6221962;28;20863;-55
2021/12/03 22:00:02;;;;;;;1.73;0.55;;;22.10;54.60;;;;;;6234981;28;20048;-55
2021/12/03 22:03:13;;;;;;;3.03;0.68;;;21.90;54.50;;;;;;6234903;28;21392;-53
2021/12/03 22:06:15;;;;;;;2.50;0.65;;;22.00;54.70;;;;;;6229683;28;20055;-53
2021/12/03 22:09:19;;;;;;;2.33;0.45;;;22.10;54.70;;;;;;6241051;28;20075;-52
2021/12/03 22:12:21;;;;;;;2.55;0.70;;;21.80;54.60;;;;;;6217935;28;20859;-55
2021/12/03 22:15:22;;;;;;;3.28;0.50;;;22.00;54.80;;;;;;6236737;28;20044;-52
2021/12/03 22:18:24;;;;;;;1.50;0.50;;;21.80;54.80;;;;;;6237178;28;20934;-53
2021/12/03 22:21:28;;;;;;;2.75;0.68;;;21.90;54.80;;;;;;6237359;28;20052;-53
2021/12/03 22:24:31;;;;;;;2.72;1.00;;;21.90;54.90;;;;;;6233474;28;20803;-54
2021/12/03 22:27:33;;;;;;;3.00;0.75;;;22.10;55.00;;;;;;6238153;28;20122;-53
2021/12/03 22:30:40;;;;;;;3.15;0.60;;;22.00;55.00;;;;;;6241441;28;20032;-51
2021/12/03 22:33:42;;;;;;;2.08;0.68;;;22.00;55.10;;;;;;6233823;28;20041;-55
2021/12/03 22:36:45;;;;;;;3.17;0.75;;;22.00;55.20;;;;;;6235850;28;20041;-54
2021/12/03 22:39:47;;;;;;;2.20;0.77;;;22.00;55.20;;;;;;6231588;28;20063;-53
2021/12/03 22:42:48;;;;;;;2.58;0.80;;;22.10;55.30;;;;;;6232038;28;20075;-55
2021/12/03 22:45:59;;;;;;;2.85;0.70;;;22.00;55.30;;;;;;6229336;28;20040;-54